Time;durP1;ratioP1;P1;durP2;ratioP2;P2;SDS_P1;SDS_P2;PMS_P1;PMS_P2;Temp;Humidity;BMP_temperature;BMP_pressure;BME280_temperature;BME280_humidity;BME280_pressure;Samples;Min_cycle;Max_cycle;Signal;HPM_P1;HPM_P2
2022/09/22 00:01:26;;;;;;;9.43;7.00;;;11.00;99.90;;;;;;4994218;28;93249;-71
2022/09/22 00:03:56;;;;;;;10.15;7.10;;;11.00;99.90;;;;;;4995717;28;93033;-71
2022/09/22 00:06:35;;;;;;;8.50;7.07;;;10.90;99.90;;;;;;4977426;28;92868;-71
2022/09/22 00:09:04;;;;;;;8.57;6.75;;;10.90;99.90;;;;;;4993759;28;92448;-71
2022/09/22 00:11:35;;;;;;;13.32;7.32;;;10.80;99.90;;;;;;4992647;28;95711;-71
2022/09/22 00:14:14;;;;;;;9.45;6.63;;;10.80;99.90;;;;;;4994950;28;95519;-71
2022/09/22 00:16:55;;;;;;;8.82;6.72;;;10.80;99.90;;;;;;4994498;28;92943;-71
2022/09/22 00:19:29;;;;;;;11.15;7.35;;;10.70;99.90;;;;;;4994885;28;93041;-71
2022/09/22 00:21:55;;;;;;;;;;;10.70;99.90;;;;;;4994179;28;95851;-71
2022/09/22 00:24:23;;;;;;;7.00;6.30;;;10.60;99.90;;;;;;4995734;28;92623;-71
2022/09/22 00:26:52;;;;;;;8.85;6.25;;;10.50;99.90;;;;;;4977741;28;92461;-71
2022/09/22 00:29:19;;;;;;;9.35;6.40;;;10.60;99.90;;;;;;4993916;28;91706;-71
2022/09/22 00:31:46;;;;;;;6.97;5.97;;;10.60;99.90;;;;;;4993567;28;93292;-71
2022/09/22 00:34:16;;;;;;;8.48;5.88;;;10.60;99.90;;;;;;4994666;28;92942;-71
2022/09/22 00:36:43;;;;;;;8.20;6.35;;;10.50;99.90;;;;;;4992625;28;94811;-71
2022/09/22 00:39:11;;;;;;;22.73;6.43;;;10.50;99.90;;;;;;4994897;28;92456;-71
2022/09/22 00:41:41;;;;;;;7.53;5.90;;;10.50;99.90;;;;;;4993487;28;93414;-71
2022/09/22 00:44:20;;;;;;;8.27;6.10;;;10.50;99.90;;;;;;4992965;28;92847;-71
2022/09/22 00:46:53;;;;;;;6.68;6.07;;;10.40;99.90;;;;;;4995096;28;92396;-71
2022/09/22 00:49:32;;;;;;;8.73;6.40;;;10.40;99.90;;;;;;4993249;28;92556;-71
2022/09/22 00:52:00;;;;;;;7.28;5.70;;;10.40;99.90;;;;;;4977087;28;98462;-71
2022/09/22 00:54:27;;;;;;;7.38;5.65;;;10.30;99.90;;;;;;4996511;28;95396;-71
2022/09/22 00:57:10;;;;;;;5.95;5.07;;;10.30;99.90;;;;;;4997987;28;92403;-71
2022/09/22 00:59:38;;;;;;;6.00;5.40;;;10.40;99.90;;;;;;4997054;28;92395;-71
2022/09/22 01:02:05;;;;;;;6.10;5.25;;;10.30;99.90;;;;;;4995349;28;95406;-71
2022/09/22 01:04:32;;;;;;;8.15;5.85;;;10.30;99.90;;;;;;4996599;28;95404;-71
2022/09/22 01:07:01;;;;;;;5.97;5.35;;;10.30;99.90;;;;;;4980382;28;92509;-71
2022/09/22 01:09:31;;;;;;;6.97;5.25;;;10.20;99.90;;;;;;4979753;28;92544;-71
2022/09/22 01:12:01;;;;;;;5.95;4.82;;;10.20;99.90;;;;;;4997648;28;93237;-71
2022/09/22 01:14:45;;;;;;;8.48;5.45;;;10.20;99.90;;;;;;4996232;28;93072;-71
2022/09/22 01:17:20;;;;;;;;;;;10.30;99.90;;;;;;4996506;28;92449;-71
2022/09/22 01:20:11;;;;;;;6.22;5.00;;;10.10;99.90;;;;;;4999320;28;91601;-71
2022/09/22 01:23:29;;;;;;;7.93;5.57;;;10.10;99.90;;;;;;4995850;28;99020;-71
2022/09/22 01:26:17;;;;;;;5.10;4.65;;;10.10;99.90;;;;;;4980071;28;93114;-71
2022/09/22 01:28:47;;;;;;;7.15;5.10;;;10.10;99.90;;;;;;4996745;28;94742;-71
2022/09/22 01:31:25;;;;;;;7.13;5.57;;;10.10;99.90;;;;;;4997453;28;93039;-71
2022/09/22 01:34:11;;;;;;;6.32;5.28;;;10.10;99.90;;;;;;4996446;28;92863;-71
2022/09/22 01:36:50;;;;;;;6.25;5.50;;;10.10;99.90;;;;;;4996029;28;94175;-71
2022/09/22 01:39:40;;;;;;;6.50;5.63;;;10.10;99.90;;;;;;4997535;28;92451;-71
2022/09/22 01:42:20;;;;;;;8.25;6.20;;;10.10;99.90;;;;;;4997743;28;92642;-71
2022/09/22 01:44:53;;;;;;;9.60;6.32;;;10.00;99.90;;;;;;4996168;28;93259;-71
2022/09/22 01:47:33;;;;;;;9.32;6.35;;;10.00;99.90;;;;;;4996409;28;93076;-71
2022/09/22 01:50:25;;;;;;;6.30;5.70;;;10.00;99.90;;;;;;4997441;28;92468;-71
2022/09/22 01:52:56;;;;;;;5.75;5.25;;;10.00;99.90;;;;;;4997312;28;92506;-71
2022/09/22 01:55:34;;;;;;;8.07;6.47;;;10.00;99.90;;;;;;4995511;28;95553;-71
2022/09/22 01:58:17;;;;;;;8.68;6.10;;;10.00;99.90;;;;;;4997123;28;95052;-71
2022/09/22 02:00:53;;;;;;;7.93;5.80;;;10.00;99.90;;;;;;4997375;28;92387;-71
2022/09/22 02:03:31;;;;;;;9.27;6.28;;;9.90;99.90;;;;;;4996520;28;92335;-71
2022/09/22 02:06:11;;;;;;;7.70;5.57;;;9.90;99.90;;;;;;4995466;28;95627;-71
2022/09/22 02:08:53;;;;;;;6.97;6.30;;;9.90;99.90;;;;;;4996910;28;93020;-71
2022/09/22 02:11:21;;;;;;;9.63;5.93;;;9.90;99.90;;;;;;4997188;28;92521;-71
2022/09/22 02:13:48;;;;;;;9.35;7.38;;;9.80;99.90;;;;;;4997384;28;91755;-71
2022/09/22 02:16:19;;;;;;;7.28;6.10;;;9.80;99.90;;;;;;4996704;28;92563;-71
2022/09/22 02:18:50;;;;;;;8.38;5.60;;;9.90;99.90;;;;;;4995425;28;92849;-71
2022/09/22 02:21:19;;;;;;;7.15;5.90;;;9.90;99.90;;;;;;4994056;28;94885;-71
2022/09/22 02:23:47;;;;;;;8.38;6.63;;;9.90;99.90;;;;;;4995698;28;92444;-71
2022/09/22 02:26:22;;;;;;;7.22;6.53;;;9.80;99.90;;;;;;4996457;28;92368;-71
2022/09/22 02:29:03;;;;;;;7.93;6.55;;;9.80;99.90;;;;;;4995202;28;94273;-71
2022/09/22 02:31:33;;;;;;;6.93;6.30;;;9.80;99.90;;;;;;4978597;28;92458;-71
2022/09/22 02:34:01;;;;;;;7.88;6.63;;;9.80;99.90;;;;;;4996564;28;92401;-71
2022/09/22 02:37:07;;;;;;;8.35;6.90;;;9.80;99.90;;;;;;4996169;28;93257;-71
2022/09/22 02:40:06;;;;;;;8.73;7.15;;;9.80;99.90;;;;;;4995273;28;93060;-71
2022/09/22 02:42:41;;;;;;;10.02;7.10;;;9.80;99.90;;;;;;4982147;28;92448;-71
2022/09/22 02:45:16;;;;;;;8.82;6.90;;;9.70;99.90;;;;;;4978671;28;92810;-71
2022/09/22 02:48:27;;;;;;;9.45;6.72;;;9.70;99.90;;;;;;4993434;28;98840;-71
2022/09/22 02:50:54;;;;;;;7.22;6.53;;;9.70;99.90;;;;;;4994645;28;95559;-71
2022/09/22 02:53:21;;;;;;;8.75;7.35;;;9.60;99.90;;;;;;4995889;28;92391;-71
2022/09/22 02:55:48;;;;;;;7.63;6.93;;;9.70;99.90;;;;;;4994907;28;92432;-71
2022/09/22 02:58:16;;;;;;;9.07;8.13;;;9.60;99.90;;;;;;4994799;28;93184;-71
2022/09/22 03:00:44;;;;;;;12.00;8.40;;;9.60;99.90;;;;;;4994565;28;94862;-71
2022/09/22 03:03:11;;;;;;;10.32;9.32;;;9.60;99.90;;;;;;4978417;28;92441;-71
2022/09/22 03:05:38;;;;;;;10.10;8.57;;;9.60;99.90;;;;;;4995870;28;104292;-71
2022/09/22 03:08:05;;;;;;;10.65;8.25;;;9.70;99.90;;;;;;4978127;28;96119;-71
2022/09/22 03:10:32;;;;;;;15.25;9.30;;;9.60;99.90;;;;;;4995907;28;93111;-71
2022/09/22 03:12:59;;;;;;;8.90;7.93;;;9.70;99.90;;;;;;4993820;28;94887;-71
2022/09/22 03:15:44;;;;;;;12.00;7.50;;;9.60;99.90;;;;;;4993862;28;93146;-71
2022/09/22 03:18:12;;;;;;;9.57;7.93;;;9.60;99.90;;;;;;4995267;28;93379;-71
2022/09/22 03:20:38;;;;;;;9.00;8.18;;;9.60;99.90;;;;;;4994148;28;95542;-71
2022/09/22 03:23:06;;;;;;;12.82;8.88;;;9.60;99.90;;;;;;4995989;28;92349;-71
2022/09/22 03:25:33;;;;;;;12.05;9.57;;;9.60;99.90;;;;;;4995701;28;92563;-71
2022/09/22 03:28:00;;;;;;;11.07;8.73;;;9.60;99.90;;;;;;4994002;28;111019;-71
2022/09/22 03:30:27;;;;;;;9.98;8.27;;;9.60;99.90;;;;;;4995744;28;92966;-71
2022/09/22 03:32:54;;;;;;;10.90;8.30;;;9.60;99.90;;;;;;4995790;28;92434;-71
2022/09/22 03:35:20;;;;;;;15.43;9.05;;;9.60;99.90;;;;;;4977481;28;93076;-71
2022/09/22 03:37:47;;;;;;;11.75;8.40;;;9.60;99.90;;;;;;4992703;28;96702;-71
2022/09/22 03:40:14;;;;;;;12.23;9.00;;;9.50;99.90;;;;;;4993823;28;98034;-71
2022/09/22 03:42:42;;;;;;;12.57;9.18;;;9.60;99.90;;;;;;4995804;28;93570;-71
2022/09/22 03:45:09;;;;;;;9.70;8.57;;;9.60;99.90;;;;;;4977695;28;92462;-71
2022/09/22 03:47:36;;;;;;;10.05;9.02;;;9.60;99.90;;;;;;4995320;28;93316;-71
2022/09/22 03:50:03;;;;;;;10.15;9.18;;;9.60;99.90;;;;;;4977975;28;92863;-71
2022/09/22 03:52:30;;;;;;;10.45;9.43;;;9.60;99.90;;;;;;4994206;28;92465;-71
2022/09/22 03:54:57;;;;;;;10.38;9.23;;;9.60;99.90;;;;;;4994408;28;91763;-71
2022/09/22 03:57:24;;;;;;;10.88;9.77;;;9.60;99.90;;;;;;4995277;28;95426;-71
2022/09/22 03:59:51;;;;;;;13.27;10.63;;;9.60;99.90;;;;;;4993717;28;95635;-71
2022/09/22 04:02:18;;;;;;;10.13;9.13;;;9.60;99.90;;;;;;4993613;28;94897;-71
2022/09/22 04:04:45;;;;;;;10.25;8.82;;;9.60;99.90;;;;;;4993912;28;92501;-71
2022/09/22 04:07:12;;;;;;;10.68;9.68;;;9.60;99.90;;;;;;4994221;28;93161;-71
2022/09/22 04:09:40;;;;;;;12.43;10.98;;;9.60;99.90;;;;;;4993573;28;98999;-71
2022/09/22 04:12:08;;;;;;;12.68;10.35;;;9.60;99.90;;;;;;4994727;28;92449;-71
2022/09/22 04:14:35;;;;;;;10.20;9.25;;;9.60;99.90;;;;;;4993338;28;92484;-71
2022/09/22 04:17:03;;;;;;;11.77;10.32;;;9.50;99.90;;;;;;4994295;28;93436;-71
2022/09/22 04:19:34;;;;;;;12.30;10.43;;;9.50;99.90;;;;;;4995111;28;93089;-71
2022/09/22 04:22:02;;;;;;;11.68;10.40;;;9.50;99.90;;;;;;4977827;28;92428;-71
2022/09/22 04:24:30;;;;;;;11.25;9.70;;;9.50;99.90;;;;;;4976951;28;92602;-71
2022/09/22 04:26:56;;;;;;;12.43;9.70;;;9.50;99.90;;;;;;4993871;28;95507;-71
2022/09/22 04:29:43;;;;;;;10.90;9.88;;;9.40;99.90;;;;;;4982893;28;98253;-71
2022/09/22 04:32:10;;;;;;;13.20;11.85;;;9.40;99.90;;;;;;4998602;28;92429;-71
2022/09/22 04:34:38;;;;;;;13.50;11.60;;;9.40;99.90;;;;;;4997278;28;98947;-71
2022/09/22 04:37:04;;;;;;;16.92;11.20;;;9.40;99.90;;;;;;4996134;28;94565;-71
2022/09/22 04:39:32;;;;;;;11.55;10.43;;;9.40;99.90;;;;;;4996236;28;95954;-71
2022/09/22 04:41:59;;;;;;;11.27;10.18;;;9.40;99.90;;;;;;4996067;28;92581;-71
2022/09/22 04:44:25;;;;;;;12.18;10.45;;;9.40;99.90;;;;;;4996728;28;91787;-71
2022/09/22 04:46:54;;;;;;;12.65;10.43;;;9.40;99.90;;;;;;4979584;28;95804;-71
2022/09/22 04:49:22;;;;;;;12.15;10.90;;;9.40;99.90;;;;;;4997478;28;92403;-71
2022/09/22 04:51:49;;;;;;;12.30;11.05;;;9.40;99.90;;;;;;4995015;28;94952;-71
2022/09/22 04:54:16;;;;;;;14.13;11.32;;;9.40;99.90;;;;;;4997576;28;92443;-71
2022/09/22 04:56:43;;;;;;;13.07;11.77;;;9.40;99.90;;;;;;4995362;28;111943;-71
2022/09/22 04:59:10;;;;;;;15.32;11.93;;;9.40;99.90;;;;;;4997585;28;93244;-71
2022/09/22 05:01:37;;;;;;;12.90;11.07;;;9.40;99.90;;;;;;4979295;28;94444;-71
2022/09/22 05:04:04;;;;;;;14.50;11.82;;;9.40;99.90;;;;;;4996309;28;93075;-71
2022/09/22 05:06:31;;;;;;;13.60;11.32;;;9.40;99.90;;;;;;4995994;28;94640;-71
2022/09/22 05:08:58;;;;;;;12.52;11.23;;;9.40;99.90;;;;;;4979532;28;94248;-71
2022/09/22 05:11:25;;;;;;;15.15;12.02;;;9.40;99.90;;;;;;4996012;28;92463;-71
2022/09/22 05:13:52;;;;;;;13.55;12.25;;;9.40;99.90;;;;;;4997235;28;92451;-71
2022/09/22 05:16:19;;;;;;;13.20;11.70;;;9.40;99.90;;;;;;4995972;28;95867;-71
2022/09/22 05:18:48;;;;;;;12.35;10.93;;;9.40;99.90;;;;;;4996429;28;103466;-71
2022/09/22 05:21:17;;;;;;;13.15;11.65;;;9.30;99.90;;;;;;4979250;28;92449;-71
2022/09/22 05:23:45;;;;;;;15.65;11.40;;;9.40;99.90;;;;;;4995452;28;92481;-71
2022/09/22 05:26:12;;;;;;;12.90;11.65;;;9.30;99.90;;;;;;4996953;28;92985;-71
2022/09/22 05:28:39;;;;;;;13.63;12.43;;;9.30;99.90;;;;;;4979563;28;93198;-71
2022/09/22 05:31:06;;;;;;;12.65;10.77;;;9.30;99.90;;;;;;4995699;28;92658;-71
2022/09/22 05:33:33;;;;;;;12.00;10.88;;;9.30;99.90;;;;;;4979483;28;92396;-71
2022/09/22 05:36:00;;;;;;;14.43;11.82;;;9.30;99.90;;;;;;4996410;28;93131;-71
2022/09/22 05:38:27;;;;;;;13.05;11.50;;;9.30;99.90;;;;;;4994805;28;93303;-71
2022/09/22 05:40:54;;;;;;;13.27;12.00;;;9.30;99.90;;;;;;4995168;28;94762;-71
2022/09/22 05:43:21;;;;;;;12.70;11.48;;;9.30;99.90;;;;;;4996723;28;97800;-71
2022/09/22 05:45:48;;;;;;;13.23;12.02;;;9.30;99.90;;;;;;4995071;28;95683;-71
2022/09/22 05:48:15;;;;;;;13.43;12.13;;;9.30;99.90;;;;;;4995225;28;95571;-71
2022/09/22 05:50:44;;;;;;;15.05;12.77;;;9.30;99.90;;;;;;4996722;28;92515;-71
2022/09/22 05:53:12;;;;;;;11.80;10.70;;;9.40;99.90;;;;;;4996553;28;92425;-71
2022/09/22 05:55:40;;;;;;;12.10;10.88;;;9.40;99.90;;;;;;4996448;28;93284;-71
2022/09/22 05:58:10;;;;;;;13.65;11.30;;;9.40;99.90;;;;;;4996397;28;92955;-71
2022/09/22 06:00:39;;;;;;;12.88;11.57;;;9.40;99.90;;;;;;4979177;28;92502;-71
2022/09/22 06:03:06;;;;;;;12.50;10.85;;;9.50;99.90;;;;;;4996235;28;92493;-71
2022/09/22 06:05:33;;;;;;;16.00;11.70;;;9.50;99.90;;;;;;4977119;28;98463;-71
2022/09/22 06:08:06;;;;;;;15.77;11.52;;;9.50;99.90;;;;;;4995896;28;95491;-71
2022/09/22 06:10:36;;;;;;;13.48;12.05;;;9.50;99.90;;;;;;4996561;28;92327;-71
2022/09/22 06:13:06;;;;;;;12.75;11.55;;;9.60;99.90;;;;;;4996170;28;92434;-71
2022/09/22 06:15:34;;;;;;;12.90;11.60;;;9.60;99.90;;;;;;4994714;28;95827;-71
2022/09/22 06:18:07;;;;;;;17.00;11.38;;;9.70;99.90;;;;;;4994111;28;93123;-71
2022/09/22 06:20:39;;;;;;;11.75;10.65;;;9.80;99.90;;;;;;4995291;28;92618;-71
2022/09/22 06:23:07;;;;;;;10.52;9.63;;;9.80;99.90;;;;;;4996209;28;91693;-71
2022/09/22 06:25:34;;;;;;;11.05;10.05;;;10.00;99.90;;;;;;4995341;28;93308;-71
2022/09/22 06:28:06;;;;;;;14.98;12.48;;;10.20;99.90;;;;;;4994505;28;93000;-71
2022/09/22 06:30:35;;;;;;;18.63;15.13;;;10.40;99.90;;;;;;4993375;28;94909;-71
2022/09/22 06:33:02;;;;;;;16.92;15.20;;;10.50;99.90;;;;;;4995967;28;92916;-71
2022/09/22 06:35:33;;;;;;;16.70;13.32;;;10.60;99.90;;;;;;4995191;28;103917;-71
2022/09/22 06:38:00;;;;;;;20.30;18.38;;;10.70;99.90;;;;;;4994129;28;95476;-71
2022/09/22 06:40:27;;;;;;;21.52;19.70;;;10.80;99.90;;;;;;4995742;28;92476;-71
2022/09/22 06:42:58;;;;;;;16.65;15.02;;;10.90;99.90;;;;;;4994410;28;92503;-71
2022/09/22 06:45:25;;;;;;;12.35;11.07;;;11.10;99.90;;;;;;4977932;28;94401;-71
2022/09/22 06:47:57;;;;;;;11.00;9.95;;;11.10;99.90;;;;;;4994783;28;92773;-71
2022/09/22 06:50:29;;;;;;;10.27;9.13;;;11.30;99.90;;;;;;4995301;28;92485;-71
2022/09/22 06:52:58;;;;;;;11.48;9.43;;;11.40;99.90;;;;;;4995944;28;92425;-71
2022/09/22 06:55:29;;;;;;;11.48;9.40;;;11.50;99.90;;;;;;4993324;28;95705;-71
2022/09/22 06:58:01;;;;;;;12.07;10.05;;;11.50;99.90;;;;;;4994548;28;95406;-71
2022/09/22 07:00:31;;;;;;;13.20;10.43;;;11.50;99.90;;;;;;4995812;28;92432;-71
2022/09/22 07:03:07;;;;;;;10.68;9.45;;;11.60;99.90;;;;;;4995563;28;92340;-71
2022/09/22 07:05:38;;;;;;;11.32;10.25;;;11.60;99.90;;;;;;4994916;28;93148;-71
2022/09/22 07:08:05;;;;;;;12.35;9.82;;;11.50;99.90;;;;;;4995003;28;92904;-71
2022/09/22 07:10:36;;;;;;;10.32;9.32;;;11.60;99.90;;;;;;4994731;28;96416;-71
2022/09/22 07:13:04;;;;;;;10.38;9.00;;;11.60;99.90;;;;;;4994957;28;91821;-71
2022/09/22 07:15:34;;;;;;;10.27;9.27;;;11.70;99.90;;;;;;4995602;28;92990;-71
2022/09/22 07:18:02;;;;;;;12.45;8.85;;;11.70;99.90;;;;;;4995164;28;93089;-71
2022/09/22 07:20:34;;;;;;;9.98;8.98;;;11.80;99.90;;;;;;4993434;28;95484;-71
2022/09/22 07:23:01;;;;;;;10.88;9.80;;;11.80;99.90;;;;;;4994207;28;92466;-71
2022/09/22 07:25:34;;;;;;;11.55;9.48;;;11.90;99.90;;;;;;4978113;28;95699;-71
2022/09/22 07:28:04;;;;;;;10.37;9.30;;;12.00;99.90;;;;;;4994173;28;95487;-71
2022/09/22 07:30:35;;;;;;;9.02;8.13;;;12.10;99.90;;;;;;4994644;28;93157;-71
2022/09/22 07:33:02;;;;;;;9.38;8.50;;;12.20;99.90;;;;;;4977645;28;92508;-71
2022/09/22 07:35:29;;;;;;;9.05;8.25;;;12.30;99.90;;;;;;4994134;28;93428;-71
2022/09/22 07:37:58;;;;;;;10.77;8.48;;;12.40;99.90;;;;;;4996030;28;93121;-71
2022/09/22 07:40:25;;;;;;;9.43;8.52;;;12.60;99.90;;;;;;4994475;28;92475;-71
2022/09/22 07:42:52;;;;;;;7.57;6.85;;;12.90;99.90;;;;;;4994429;28;92486;-71
2022/09/22 07:45:20;;;;;;;9.27;6.70;;;13.10;99.90;;;;;;4992774;28;95375;-71
2022/09/22 07:50:33;;;;;;;9.02;8.23;;;13.50;99.90;;;;;;4995606;28;92489;-71
2022/09/22 07:53:00;;;;;;;9.63;8.65;;;13.80;99.90;;;;;;4993905;28;92571;-71
2022/09/22 07:55:27;;;;;;;7.55;6.93;;;14.20;99.90;;;;;;4994619;28;113742;-71
2022/09/22 07:57:58;;;;;;;9.55;8.75;;;14.80;99.90;;;;;;4993592;28;95447;-71
2022/09/22 08:00:31;;;;;;;7.97;7.28;;;15.60;99.90;;;;;;4995376;28;92420;-71
2022/09/22 08:03:00;;;;;;;7.53;6.90;;;16.30;99.90;;;;;;4997526;28;91653;-71
2022/09/22 08:05:28;;;;;;;8.52;7.75;;;16.90;99.90;;;;;;4997363;28;95056;-71
2022/09/22 08:07:57;;;;;;;7.35;6.72;;;17.50;99.90;;;;;;4997518;28;92854;-72
2022/09/22 08:10:25;;;;;;;7.30;6.70;;;18.00;98.50;;;;;;4963708;28;94881;-72
2022/09/22 08:12:56;;;;;;;7.70;7.00;;;18.60;97.60;;;;;;4997585;28;92478;-72
2022/09/22 08:15:25;;;;;;;11.90;11.07;;;19.00;96.00;;;;;;4998710;28;93354;-72
2022/09/22 08:17:57;;;;;;;14.25;13.32;;;19.20;95.00;;;;;;4996334;28;93138;-72
2022/09/22 08:20:28;;;;;;;5.97;5.35;;;19.50;93.70;;;;;;4997984;28;92388;-72
2022/09/22 08:23:04;;;;;;;5.13;4.40;;;19.50;93.20;;;;;;4998917;28;92479;-72
2022/09/22 08:25:31;;;;;;;7.57;5.20;;;19.60;93.00;;;;;;4998550;28;94012;-72
2022/09/22 08:28:00;;;;;;;7.00;6.40;;;19.50;92.90;;;;;;4998902;28;92989;-72
2022/09/22 08:30:27;;;;;;;5.70;5.20;;;19.50;92.80;;;;;;4998569;28;92488;-72
2022/09/22 08:32:54;;;;;;;7.07;6.35;;;19.30;92.80;;;;;;4998563;28;92467;-72
2022/09/22 08:35:21;;;;;;;7.68;6.38;;;19.10;93.00;;;;;;4996891;28;95554;-72
2022/09/22 08:37:49;;;;;;;7.03;6.05;;;18.80;92.80;;;;;;4996615;28;96394;-72
2022/09/22 08:40:22;;;;;;;7.85;7.15;;;18.40;92.90;;;;;;4998339;28;92982;-72
2022/09/22 08:42:52;;;;;;;7.55;5.47;;;18.20;93.70;;;;;;4997071;28;92446;-72
2022/09/22 08:45:37;;;;;;;8.73;6.30;;;17.90;94.20;;;;;;4996582;28;95815;-72
2022/09/22 08:53:57;;;;;;;8.13;7.38;;;17.40;95.20;;;;;;4997215;28;91740;-72
2022/09/22 08:56:56;;;;;;;8.95;6.40;;;17.20;95.40;;;;;;4996515;28;93171;-72
2022/09/22 08:59:31;;;;;;;7.07;6.47;;;17.20;95.60;;;;;;4996549;28;95598;-71
2022/09/22 09:02:32;;;;;;;7.78;7.20;;;17.00;96.50;;;;;;4997301;28;95320;-71
2022/09/22 09:05:22;;;;;;;7.30;6.60;;;17.00;96.50;;;;;;4996712;28;92548;-71
2022/09/22 09:08:26;;;;;;;6.03;5.47;;;17.00;96.90;;;;;;4998277;28;93319;-71
2022/09/22 09:11:08;;;;;;;6.65;6.10;;;16.90;97.10;;;;;;4998003;28;93236;-71
2022/09/22 09:13:35;;;;;;;7.25;6.18;;;16.80;97.00;;;;;;4995422;28;92494;-71
2022/09/22 09:16:03;;;;;;;9.57;6.13;;;16.70;97.00;;;;;;4996620;28;92456;-71
2022/09/22 09:18:36;;;;;;;5.60;5.03;;;16.70;97.10;;;;;;4997052;28;93293;-72
2022/09/22 09:21:08;;;;;;;7.27;6.57;;;16.80;96.60;;;;;;4998189;28;93076;-72
2022/09/22 09:23:45;;;;;;;6.45;4.90;;;16.60;97.00;;;;;;4997513;28;92373;-72
2022/09/22 09:26:34;;;;;;;5.47;4.95;;;16.70;97.40;;;;;;4996316;28;92433;-72
2022/09/22 09:29:06;;;;;;;6.80;5.40;;;16.70;97.10;;;;;;4995225;28;96656;-71
2022/09/22 09:31:47;;;;;;;6.78;6.18;;;16.80;97.20;;;;;;4996086;28;95513;-71
2022/09/22 09:34:16;;;;;;;6.20;5.65;;;17.00;97.20;;;;;;4997550;28;92424;-71
2022/09/22 09:36:54;;;;;;;6.28;4.00;;;17.00;96.60;;;;;;4996281;28;92878;-72
2022/09/22 09:39:32;;;;;;;6.68;5.38;;;17.00;96.70;;;;;;4997171;28;93298;-71
2022/09/22 09:42:01;;;;;;;4.80;4.35;;;17.10;96.40;;;;;;4997579;28;92829;-71
2022/09/22 09:44:38;;;;;;;5.20;4.10;;;17.00;95.50;;;;;;4997031;28;92501;-72
2022/09/22 09:47:31;;;;;;;4.72;4.22;;;17.00;95.50;;;;;;4998032;28;91695;-71
2022/09/22 09:49:59;;;;;;;5.53;4.95;;;17.10;95.80;;;;;;4979148;28;96033;-71
2022/09/22 09:52:27;;;;;;;6.47;4.45;;;17.10;95.90;;;;;;4996886;28;92469;-71
2022/09/22 09:54:54;;;;;;;5.88;5.28;;;17.30;95.60;;;;;;4994781;28;95457;-71
2022/09/22 09:57:22;;;;;;;6.63;4.03;;;17.30;94.00;;;;;;4995806;28;92522;-71
2022/09/22 10:00:30;;;;;;;6.35;5.15;;;17.30;94.30;;;;;;4997274;28;93303;-72
2022/09/22 10:03:09;;;;;;;5.93;4.85;;;17.30;93.60;;;;;;4979102;28;95639;-72
2022/09/22 10:05:36;;;;;;;5.93;3.30;;;17.40;94.40;;;;;;4997096;28;92362;-71
2022/09/22 10:08:14;;;;;;;5.53;3.10;;;17.30;94.10;;;;;;4963506;28;92394;-72
2022/09/22 10:10:41;;;;;;;7.22;3.17;;;17.50;93.40;;;;;;4996852;28;93368;-71
2022/09/22 10:13:08;;;;;;;4.28;3.90;;;17.60;93.60;;;;;;4979346;28;91787;-71
2022/09/22 10:15:40;;;;;;;4.82;3.63;;;17.70;93.50;;;;;;4996955;28;92894;-71
2022/09/22 10:18:28;;;;;;;4.40;3.97;;;17.90;93.40;;;;;;4995372;28;92768;-71
2022/09/22 10:21:22;;;;;;;3.05;2.85;;;18.10;93.30;;;;;;4994100;28;95680;-71
2022/09/22 10:23:57;;;;;;;4.45;3.95;;;18.20;92.80;;;;;;4996490;28;95394;-71
2022/09/22 10:26:29;;;;;;;5.53;3.50;;;18.30;92.80;;;;;;4996582;28;92458;-72
2022/09/22 10:29:18;;;;;;;5.03;4.05;;;18.40;92.20;;;;;;4995407;28;92499;-72
2022/09/22 10:32:01;;;;;;;4.30;2.53;;;18.50;91.90;;;;;;4994866;28;95705;-72
2022/09/22 10:34:40;;;;;;;4.90;4.53;;;18.70;92.20;;;;;;4996411;28;93068;-72
2022/09/22 10:37:09;;;;;;;4.50;3.00;;;18.70;91.00;;;;;;4996924;28;92626;-72
2022/09/22 10:39:44;;;;;;;3.55;3.20;;;18.70;90.40;;;;;;4996610;28;92108;-72
2022/09/22 10:42:43;;;;;;;4.63;2.85;;;18.70;91.40;;;;;;4996518;28;93325;-71
2022/09/22 10:45:18;;;;;;;4.95;4.30;;;18.90;90.80;;;;;;4996730;28;93170;-72
2022/09/22 10:47:57;;;;;;;4.22;2.63;;;18.90;90.30;;;;;;4993698;28;95448;-71
2022/09/22 10:51:14;;;;;;;5.32;3.28;;;19.10;90.10;;;;;;4994830;28;92524;-72
2022/09/22 10:53:56;;;;;;;3.40;2.70;;;19.20;89.00;;;;;;4954456;28;92625;-72
2022/09/22 10:56:42;;;;;;;6.90;4.68;;;19.30;89.50;;;;;;4922039;28;95403;-72
2022/09/22 10:59:25;;;;;;;4.55;3.92;;;19.30;88.30;;;;;;4987111;28;92482;-72
2022/09/22 11:02:06;;;;;;;4.78;3.25;;;19.40;88.20;;;;;;4978380;28;95397;-72
2022/09/22 11:04:54;;;;;;;4.50;3.90;;;19.40;88.30;;;;;;4994368;28;96008;-72
2022/09/22 11:13:46;;;;;;;5.65;3.85;;;19.50;87.70;;;;;;4996160;28;92620;-72
2022/09/22 11:16:15;;;;;;;7.00;3.72;;;19.50;86.80;;;;;;4993144;28;99990;-72
2022/09/22 11:19:07;;;;;;;4.72;3.63;;;19.70;85.50;;;;;;4995159;28;95501;-72
2022/09/22 11:21:53;;;;;;;7.75;3.00;;;19.90;85.40;;;;;;4995965;28;92411;-72
2022/09/22 11:24:39;;;;;;;10.10;3.33;;;19.90;86.90;;;;;;4996029;28;92342;-72
2022/09/22 11:27:24;;;;;;;7.13;3.70;;;20.00;85.50;;;;;;4995916;28;94244;-72
2022/09/22 11:30:09;;;;;;;4.28;3.88;;;20.00;84.80;;;;;;4977535;28;95533;-71
2022/09/22 11:32:40;;;;;;;4.57;4.13;;;19.90;82.20;;;;;;4977964;28;92442;-71
2022/09/22 11:35:41;;;;;;;6.90;4.20;;;19.90;82.80;;;;;;4994666;28;91816;-72
2022/09/22 11:38:39;;;;;;;5.32;4.60;;;19.90;80.30;;;;;;4995385;28;93404;-72
2022/09/22 11:41:25;;;;;;;4.38;3.05;;;19.90;83.40;;;;;;4995636;28;93036;-72
2022/09/22 11:44:32;;;;;;;4.90;3.47;;;20.00;83.00;;;;;;4994686;28;94896;-72
2022/09/22 11:47:01;;;;;;;5.82;4.15;;;20.20;81.30;;;;;;4995913;28;92438;-72
2022/09/22 11:49:43;;;;;;;6.57;3.53;;;20.20;81.20;;;;;;4995227;28;93047;-72
2022/09/22 11:52:20;;;;;;;5.93;4.47;;;20.30;81.40;;;;;;4994110;28;95653;-72
2022/09/22 11:55:13;;;;;;;7.30;3.63;;;20.30;80.90;;;;;;4995555;28;92992;-72
2022/09/22 11:57:46;;;;;;;8.63;4.40;;;20.30;81.10;;;;;;4979006;28;92477;-73
2022/09/22 12:00:16;;;;;;;7.35;5.35;;;20.50;80.30;;;;;;4995794;28;93231;-72
2022/09/22 12:03:01;;;;;;;4.10;2.63;;;20.70;79.40;;;;;;4995736;28;92132;-72
2022/09/22 12:05:38;;;;;;;5.20;3.28;;;20.90;78.90;;;;;;4994287;28;92455;-72
2022/09/22 12:08:09;;;;;;;6.53;3.90;;;21.00;78.10;;;;;;4995979;28;92990;-72
2022/09/22 12:10:43;;;;;;;6.78;4.50;;;21.10;77.90;;;;;;4992359;28;98456;-72
2022/09/22 12:13:19;;;;;;;7.03;4.00;;;21.10;77.60;;;;;;4993653;28;98147;-72
2022/09/22 12:15:57;;;;;;;3.85;3.53;;;21.10;76.20;;;;;;4995293;28;92422;-72
2022/09/22 12:18:38;;;;;;;6.10;4.93;;;20.90;75.40;;;;;;4993946;28;92494;-72
2022/09/22 12:21:18;;;;;;;6.18;5.05;;;21.00;75.00;;;;;;4994939;28;93069;-72
2022/09/22 12:23:49;;;;;;;6.65;5.70;;;21.10;76.10;;;;;;4994853;28;93999;-72
2022/09/22 12:26:32;;;;;;;5.95;4.60;;;21.00;74.50;;;;;;4993934;28;92674;-72
2022/09/22 12:29:00;;;;;;;5.93;3.92;;;21.10;74.30;;;;;;4993092;28;94831;-72
2022/09/22 12:31:41;;;;;;;5.68;4.05;;;21.20;74.50;;;;;;4993770;28;93219;-72
2022/09/22 12:34:17;;;;;;;3.95;3.45;;;21.60;72.70;;;;;;4994074;28;92983;-72
2022/09/22 12:36:45;;;;;;;6.72;5.05;;;21.90;72.70;;;;;;4993990;28;95473;-72
2022/09/22 12:39:19;;;;;;;4.93;4.32;;;21.80;70.90;;;;;;4993751;28;92748;-72
2022/09/22 12:42:08;;;;;;;5.65;3.28;;;21.90;70.50;;;;;;4994497;28;93205;-72
2022/09/22 12:44:52;;;;;;;5.18;3.50;;;21.70;70.70;;;;;;4987318;28;92437;-72
2022/09/22 12:47:30;;;;;;;5.03;4.53;;;21.70;70.00;;;;;;4995625;28;92336;-72
2022/09/22 12:49:59;;;;;;;4.50;3.53;;;21.70;70.90;;;;;;4996812;28;92522;-72
2022/09/22 12:52:47;;;;;;;5.85;4.50;;;21.80;70.20;;;;;;4997813;28;93274;-72
2022/09/22 12:55:20;;;;;;;5.55;5.00;;;22.00;69.20;;;;;;4970804;28;94054;-72
2022/09/22 12:57:49;;;;;;;5.50;4.13;;;22.00;70.00;;;;;;4996447;28;92464;-72
2022/09/22 13:00:39;;;;;;;5.50;4.85;;;22.10;68.50;;;;;;4998149;28;92435;-72
2022/09/22 13:03:24;;;;;;;3.75;3.28;;;22.30;68.50;;;;;;4996789;28;96376;-72
2022/09/22 13:06:18;;;;;;;4.38;4.05;;;22.30;67.40;;;;;;4997565;28;94028;-72
2022/09/22 13:08:51;;;;;;;4.95;4.60;;;22.30;68.10;;;;;;4995815;28;92465;-72
2022/09/22 13:11:18;;;;;;;4.93;3.50;;;22.20;68.50;;;;;;4997899;28;92441;-72
2022/09/22 13:13:46;;;;;;;7.47;4.82;;;22.10;68.00;;;;;;4979785;28;95708;-72
2022/09/22 13:16:13;;;;;;;6.28;4.10;;;22.10;68.30;;;;;;4997533;28;92906;-72
2022/09/22 13:18:44;;;;;;;4.60;3.92;;;22.00;68.70;;;;;;4997453;28;92484;-72
2022/09/22 13:21:11;;;;;;;4.93;3.90;;;21.90;68.10;;;;;;4998370;28;91636;-72
2022/09/22 13:23:52;;;;;;;5.78;3.88;;;21.80;68.20;;;;;;4995950;28;106027;-72
2022/09/22 13:26:40;;;;;;;6.07;5.47;;;21.90;66.80;;;;;;4996096;28;95708;-72
2022/09/22 13:29:16;;;;;;;4.45;4.05;;;22.00;67.00;;;;;;4996517;28;94743;-72
2022/09/22 13:31:49;;;;;;;5.18;4.47;;;22.10;68.50;;;;;;4996381;28;92429;-72
2022/09/22 13:34:18;;;;;;;3.90;3.00;;;22.30;67.70;;;;;;4997656;28;93085;-72